Time;durP1;ratioP1;P1;durP2;ratioP2;P2;SDS_P1;SDS_P2;PMS_P1;PMS_P2;Temp;Humidity;BMP_temperature;BMP_pressure;BME280_temperature;BME280_humidity;BME280_pressure;Samples;Min_cycle;Max_cycle;Signal;HPM_P1;HPM_P2
2021/09/30 00:00:52;;;;;;;2.55;0.90;;;13.10;74.60;;;11.85;77.28;96982.25;5009251;28;20037;-63
2021/09/30 00:03:18;;;;;;;2.40;0.50;;;13.10;74.20;;;11.84;78.45;96988.53;5005896;28;20111;-63
2021/09/30 00:05:44;;;;;;;1.55;0.60;;;13.10;74.70;;;11.82;78.42;96988.72;4998728;28;20057;-62
2021/09/30 00:08:10;;;;;;;1.67;0.52;;;13.10;74.80;;;11.80;78.19;96989.88;5005991;28;20355;-63
2021/09/30 00:10:36;;;;;;;2.53;0.70;;;13.00;74.70;;;11.78;78.12;96991.84;4977532;28;20053;-63
2021/09/30 00:13:07;;;;;;;0.70;0.47;;;13.00;74.60;;;11.77;77.98;96987.53;4989937;28;20097;-63
2021/09/30 00:15:52;;;;;;;2.88;0.70;;;13.10;74.70;;;11.76;78.86;96989.34;4960891;28;20092;-63
2021/09/30 00:40:12;;;;;;;5.57;0.70;;;13.00;74.00;;;11.70;77.49;96994.50;4979470;28;20091;-64
2021/09/30 00:48:10;;;;;;;2.83;0.60;;;13.00;73.80;;;11.69;77.13;96998.13;4981107;28;20045;-63
2021/09/30 00:51:17;;;;;;;1.58;0.65;;;13.00;73.40;;;11.70;77.45;97005.03;4979976;28;20034;-63
2021/09/30 00:53:47;;;;;;;2.75;0.50;;;13.10;73.00;;;11.67;77.05;97000.94;5005373;28;20049;-63
2021/09/30 01:22:33;;;;;;;2.30;0.75;;;12.70;72.50;;;11.44;75.49;97031.69;4970996;28;20095;-63
2021/09/30 01:29:37;;;;;;;1.80;0.57;;;12.70;72.00;;;11.40;75.47;97047.03;5002530;28;20125;-63
2021/09/30 01:52:20;;;;;;;3.00;0.60;;;12.40;71.70;;;11.19;74.80;97038.88;4984266;28;20088;-64
2021/09/30 02:18:17;;;;;;;2.10;0.50;;;12.30;72.20;;;11.00;74.95;97061.94;4989465;28;20045;-64
2021/09/30 02:18:22;;;;;;;1.35;0.50;;;12.20;71.50;;;10.90;75.67;97061.31;4976194;28;20765;-64
2021/09/30 02:28:53;;;;;;;4.72;1.73;;;12.20;71.80;;;10.82;75.94;97068.41;4987610;28;20069;-64
2021/09/30 02:34:34;;;;;;;4.32;2.30;;;12.20;71.90;;;10.79;75.50;97077.44;4978463;28;20495;-64
2021/09/30 02:58:55;;;;;;;1.90;0.63;;;12.10;72.40;;;10.63;76.24;97087.97;4993553;28;20056;-66
2021/09/30 03:01:23;;;;;;;1.88;0.60;;;12.10;72.80;;;10.60;76.94;97090.94;4974131;28;20068;-64
2021/09/30 03:03:50;;;;;;;3.30;0.80;;;12.00;72.30;;;10.58;76.60;97092.91;4971422;28;20027;-63
2021/09/30 03:06:16;;;;;;;2.05;0.77;;;12.10;72.50;;;10.57;76.21;97096.53;4962759;28;20040;-64
2021/09/30 03:08:44;;;;;;;9.35;6.68;;;12.00;73.00;;;10.57;77.01;97092.09;4976447;28;20034;-64
2021/09/30 03:11:10;;;;;;;8.30;6.15;;;12.10;73.40;;;10.58;76.81;97101.63;4987286;28;20038;-63
2021/09/30 03:13:36;;;;;;;6.90;2.08;;;12.10;73.60;;;10.58;77.20;97104.25;4975236;28;20134;-63
2021/09/30 03:16:09;;;;;;;4.10;2.83;;;12.00;73.30;;;10.58;77.33;97093.75;4958461;28;20830;-64
2021/09/30 03:23:34;;;;;;;9.93;5.90;;;12.10;74.00;;;10.58;78.85;97092.91;4981802;28;20565;-67
2021/09/30 03:26:00;;;;;;;5.25;1.52;;;12.20;74.20;;;10.60;78.44;97098.84;4966304;28;20061;-67
2021/09/30 03:28:26;;;;;;;1.85;0.80;;;12.10;73.80;;;10.58;78.48;97108.69;4990640;28;20062;-67
2021/09/30 03:30:54;;;;;;;2.50;0.68;;;12.10;73.90;;;10.59;77.92;97110.34;4990681;28;20081;-67
2021/09/30 03:33:20;;;;;;;2.50;0.55;;;12.00;73.80;;;10.57;77.53;97102.63;4975268;28;20125;-68
2021/09/30 03:35:45;;;;;;;3.45;0.80;;;12.10;73.90;;;10.58;78.64;97108.69;4993418;28;20037;-67
2021/09/30 03:38:11;;;;;;;1.48;0.60;;;12.10;73.90;;;10.51;77.60;97103.28;5011208;28;20048;-67
2021/09/30 03:40:38;;;;;;;1.65;0.63;;;12.00;73.70;;;10.53;78.73;97118.91;4993779;28;20770;-67
2021/09/30 03:43:04;;;;;;;5.22;0.85;;;12.00;74.10;;;10.51;77.91;97102.47;4994731;28;20429;-68
2021/09/30 03:45:30;;;;;;;1.80;1.00;;;12.00;74.30;;;10.53;78.93;97116.28;4993759;28;20514;-67
2021/09/30 03:47:55;;;;;;;2.10;0.93;;;12.00;74.30;;;10.52;78.58;97107.56;5010513;28;20116;-67
2021/09/30 03:50:25;;;;;;;3.20;1.00;;;12.00;74.10;;;10.53;77.96;97113.63;5009603;28;20034;-67
2021/09/30 03:53:12;;;;;;;2.05;0.80;;;12.10;74.20;;;10.53;78.03;97113.63;4989996;28;20049;-68
2021/09/30 04:00:37;;;;;;;3.22;1.10;;;12.00;74.40;;;10.50;79.36;97116.59;5010868;28;20069;-63
2021/09/30 04:03:04;;;;;;;4.30;1.30;;;11.90;74.30;;;10.47;78.37;97127.44;5011028;28;20042;-63
2021/09/30 04:05:29;;;;;;;4.70;2.10;;;11.90;74.50;;;10.48;78.61;97131.72;4991166;28;20065;-64
2021/09/30 04:07:55;;;;;;;4.57;2.35;;;11.90;74.40;;;10.48;78.21;97129.09;5010549;28;20061;-64
2021/09/30 04:10:21;;;;;;;6.63;2.60;;;11.90;74.20;;;10.45;78.72;97126.78;5010321;28;20072;-64
2021/09/30 04:12:46;;;;;;;5.38;2.60;;;11.90;73.80;;;10.43;78.16;97133.03;4974617;28;20035;-64
2021/09/30 04:15:12;;;;;;;3.97;2.05;;;11.90;73.90;;;10.41;78.83;97124.50;4977589;28;20050;-63
2021/09/30 04:17:38;;;;;;;3.67;1.30;;;11.90;73.90;;;10.42;78.06;97130.56;4978243;28;20031;-64
2021/09/30 04:20:05;;;;;;;4.93;1.20;;;11.90;73.50;;;10.41;78.35;97135.00;5009750;28;20057;-64
2021/09/30 04:22:30;;;;;;;3.20;1.30;;;11.80;73.70;;;10.40;78.50;97128.09;4990858;28;20192;-64
2021/09/30 04:24:56;;;;;;;4.80;1.15;;;11.80;74.10;;;10.39;77.80;97131.69;5007714;28;20034;-63
2021/09/30 04:27:22;;;;;;;3.30;0.88;;;11.80;74.00;;;10.37;78.54;97138.94;4958874;28;20451;-63
2021/09/30 04:29:48;;;;;;;4.53;1.63;;;11.80;73.80;;;10.37;77.72;97140.75;4988129;28;20495;-64
2021/09/30 04:32:13;;;;;;;3.92;1.70;;;11.80;74.10;;;10.37;78.14;97141.56;5010009;28;20519;-64
2021/09/30 04:34:39;;;;;;;4.75;1.60;;;11.80;73.70;;;10.35;77.67;97140.91;4983695;28;20031;-64
2021/09/30 04:37:05;;;;;;;4.03;1.80;;;11.80;73.70;;;10.36;77.98;97144.34;4974760;28;20034;-64
2021/09/30 04:39:31;;;;;;;3.08;1.45;;;11.80;73.90;;;10.33;78.44;97139.41;4991710;28;20113;-64
2021/09/30 04:41:57;;;;;;;5.07;1.50;;;11.80;74.00;;;10.36;77.87;97147.81;4985640;28;20072;-64
2021/09/30 04:44:23;;;;;;;8.60;2.13;;;11.80;73.70;;;10.35;77.71;97148.78;4993824;28;20415;-64
2021/09/30 04:46:49;;;;;;;5.07;1.98;;;11.80;73.90;;;10.36;78.97;97147.81;5011823;28;20457;-63
2021/09/30 04:49:14;;;;;;;6.72;2.90;;;11.80;74.40;;;10.34;78.28;97151.59;5009653;28;20376;-63
2021/09/30 04:51:40;;;;;;;4.68;2.45;;;11.80;74.50;;;10.32;78.17;97157.00;5009365;28;20100;-63
2021/09/30 04:54:06;;;;;;;5.43;2.83;;;11.80;74.20;;;10.33;78.84;97163.91;4987279;28;20030;-64
2021/09/30 04:56:32;;;;;;;5.13;2.38;;;11.80;74.30;;;10.33;77.96;97160.47;4990450;28;20033;-63
2021/09/30 04:58:59;;;;;;;4.82;2.40;;;11.80;74.30;;;10.29;79.20;97151.25;4990113;28;20085;-64
2021/09/30 05:01:25;;;;;;;4.38;2.20;;;11.80;74.30;;;10.29;77.82;97156.50;4993356;28;20759;-64
2021/09/30 05:03:51;;;;;;;4.57;2.30;;;11.70;74.50;;;10.26;79.61;97144.50;5009428;28;20041;-64
2021/09/30 05:06:17;;;;;;;5.78;2.08;;;11.70;74.50;;;10.27;78.09;97155.84;4993655;28;20418;-64
2021/09/30 05:08:45;;;;;;;3.63;1.55;;;11.70;74.70;;;10.26;79.23;97152.41;5011131;28;20030;-64
2021/09/30 05:11:11;;;;;;;3.95;1.13;;;11.60;75.00;;;10.26;78.93;97152.41;5009587;28;20040;-63
2021/09/30 05:13:37;;;;;;;5.30;1.35;;;11.70;74.60;;;10.25;79.05;97156.00;5009388;28;20452;-64
2021/09/30 05:16:08;;;;;;;2.67;0.80;;;11.70;74.90;;;10.21;79.43;97149.44;5009161;28;20034;-64
2021/09/30 05:18:34;;;;;;;3.55;1.00;;;11.70;74.80;;;10.23;79.09;97152.72;4993469;28;20529;-63
2021/09/30 05:21:01;;;;;;;3.70;0.70;;;11.70;75.10;;;10.24;80.37;97151.75;5009345;28;20038;-64
2021/09/30 05:23:26;;;;;;;2.70;0.85;;;11.80;75.40;;;10.26;79.45;97154.22;5008457;28;20037;-63
2021/09/30 05:25:52;;;;;;;3.30;0.98;;;11.80;75.00;;;10.26;79.95;97146.31;5009171;28;20487;-64
2021/09/30 05:28:18;;;;;;;3.95;0.77;;;11.80;75.30;;;10.26;80.71;97149.78;4992842;28;20503;-64
2021/09/30 05:30:43;;;;;;;2.58;0.63;;;11.80;75.00;;;10.28;80.36;97152.25;4993015;28;20432;-63
2021/09/30 05:33:09;;;;;;;3.20;1.00;;;11.80;75.10;;;10.28;79.72;97150.44;5008717;28;20069;-63
2021/09/30 05:35:35;;;;;;;2.90;0.80;;;11.80;75.10;;;10.30;80.69;97153.72;5009305;28;20069;-63
2021/09/30 05:38:01;;;;;;;5.35;0.90;;;11.90;75.40;;;10.31;79.45;97152.72;4992882;28;20038;-63
2021/09/30 05:40:28;;;;;;;2.83;1.13;;;11.90;75.40;;;10.31;80.53;97142.22;5008815;28;20128;-64
2021/09/30 05:42:55;;;;;;;3.22;1.00;;;11.90;75.30;;;10.30;80.58;97148.47;4993034;28;20034;-63
2021/09/30 05:45:21;;;;;;;5.63;1.00;;;11.90;75.20;;;10.30;80.75;97148.47;4976908;28;20034;-63
2021/09/30 05:47:46;;;;;;;2.22;0.90;;;11.90;75.20;;;10.32;79.67;97156.19;5008916;28;20034;-64
2021/09/30 05:50:13;;;;;;;2.22;1.20;;;11.90;75.20;;;10.28;80.96;97153.06;5008618;28;20045;-63
2021/09/30 05:52:38;;;;;;;3.80;1.30;;;11.80;75.30;;;10.28;80.07;97153.06;5008745;28;20081;-63
2021/09/30 05:55:05;;;;;;;3.05;1.23;;;11.90;75.50;;;10.26;80.77;97160.28;5009110;28;20539;-63
2021/09/30 05:57:31;;;;;;;2.53;1.35;;;11.80;75.40;;;10.22;79.80;97166.84;5008907;28;20042;-63
2021/09/30 06:00:12;;;;;;;5.05;1.80;;;11.70;75.80;;;10.19;81.20;97161.91;4975941;28;20096;-63
2021/09/30 06:10:54;;;;;;;2.45;1.00;;;11.70;76.10;;;10.10;81.58;97181.25;5008986;28;20391;-63
2021/09/30 06:13:40;;;;;;;3.58;1.25;;;11.70;76.30;;;10.09;81.44;97177.78;5008313;28;20038;-63
2021/09/30 06:16:11;;;;;;;2.90;1.00;;;11.70;76.10;;;10.08;81.47;97172.69;4991954;28;20069;-63
2021/09/30 06:18:36;;;;;;;1.52;0.80;;;11.70;75.70;;;10.09;81.32;97177.78;4974266;28;20043;-63
2021/09/30 06:21:02;;;;;;;5.90;1.17;;;11.80;75.70;;;10.10;80.85;97181.25;4973319;28;20458;-63
2021/09/30 06:23:28;;;;;;;4.22;1.38;;;11.60;75.70;;;10.07;81.89;97184.19;4989764;28;20046;-63
2021/09/30 06:25:54;;;;;;;3.17;1.08;;;11.60;76.00;;;10.05;80.87;97183.53;4992764;28;20026;-63
2021/09/30 06:28:19;;;;;;;4.32;1.17;;;11.60;76.20;;;10.07;82.15;97184.19;4992803;28;20065;-63
2021/09/30 06:30:45;;;;;;;3.88;1.10;;;11.60;76.20;;;10.02;80.85;97175.97;5009050;28;20053;-63
2021/09/30 06:33:12;;;;;;;6.07;1.30;;;11.60;75.80;;;10.08;82.21;97185.84;5008387;28;20049;-63
2021/09/30 06:35:37;;;;;;;3.03;0.93;;;11.70;75.70;;;10.14;80.94;97182.56;4996299;28;20113;-63
2021/09/30 06:38:03;;;;;;;2.33;1.00;;;11.90;76.10;;;10.20;81.39;97181.94;5005569;28;20034;-63
2021/09/30 06:40:30;;;;;;;3.03;1.02;;;12.00;76.00;;;10.26;81.69;97183.97;5006138;28;20137;-63
2021/09/30 06:42:57;;;;;;;2.83;0.85;;;11.90;74.80;;;10.31;80.57;97180.84;4992738;28;20060;-63
2021/09/30 06:45:23;;;;;;;3.05;1.10;;;12.10;74.30;;;10.39;80.66;97188.75;5008932;28;20038;-63
2021/09/30 06:47:49;;;;;;;3.75;2.45;;;12.20;73.50;;;10.47;81.12;97195.84;5008802;28;20091;-63
2021/09/30 06:50:18;;;;;;;2.50;1.20;;;12.30;73.70;;;10.58;80.43;97190.25;5008580;28;20029;-64
2021/09/30 06:52:43;;;;;;;3.30;1.00;;;12.50;73.30;;;10.68;79.55;97189.16;5008776;28;20174;-63
2021/09/30 06:55:10;;;;;;;2.83;1.20;;;12.60;72.20;;;10.80;80.50;97197.53;4986420;28;20030;-63
2021/09/30 06:57:36;;;;;;;4.05;1.58;;;12.80;72.40;;;10.96;79.76;97186.19;4989349;28;20076;-63
2021/09/30 07:00:06;;;;;;;7.68;4.45;;;13.00;70.40;;;11.10;78.29;97184.72;4988524;28;20030;-64
2021/09/30 07:02:38;;;;;;;3.10;1.27;;;13.10;70.40;;;11.25;78.31;97191.78;4982025;28;20136;-64
2021/09/30 07:05:04;;;;;;;4.03;1.08;;;13.40;69.30;;;11.41;77.86;97196.19;4995017;28;20057;-63
2021/09/30 07:07:30;;;;;;;5.70;2.50;;;13.60;68.30;;;11.53;77.00;97189.56;5012874;28;20045;-63
2021/09/30 07:09:56;;;;;;;7.47;3.97;;;13.80;68.00;;;11.73;77.24;97194.47;4995880;28;20034;-63
2021/09/30 07:12:21;;;;;;;11.10;6.93;;;14.00;67.50;;;11.91;76.36;97200.38;5012201;28;20045;-63
2021/09/30 07:14:47;;;;;;;5.68;2.50;;;14.30;66.20;;;12.09;75.57;97195.72;5013994;28;20084;-64
2021/09/30 07:17:13;;;;;;;5.18;2.30;;;14.60;64.80;;;12.23;74.11;97197.63;5012362;28;20034;-64
2021/09/30 07:19:39;;;;;;;4.32;1.88;;;14.60;61.70;;;12.39;73.64;97196.72;5011743;28;20096;-64
2021/09/30 07:22:06;;;;;;;4.57;1.23;;;15.00;61.00;;;12.56;72.86;97197.44;5012109;28;20104;-63
2021/09/30 07:24:32;;;;;;;5.15;2.80;;;15.20;60.80;;;12.73;71.96;97199.00;5012499;28;20030;-63
2021/09/30 07:26:58;;;;;;;2.85;1.10;;;15.50;60.10;;;12.95;70.92;97201.81;5012538;28;20113;-64
2021/09/30 07:29:24;;;;;;;3.53;1.10;;;15.80;57.40;;;13.13;70.86;97200.50;5011981;28;20099;-63
2021/09/30 07:31:49;;;;;;;3.35;0.80;;;16.10;57.80;;;13.33;70.04;97200.84;5011262;28;20133;-64
2021/09/30 07:34:15;;;;;;;4.53;1.10;;;16.40;56.90;;;13.55;69.83;97209.72;5011951;28;20054;-64
2021/09/30 07:36:42;;;;;;;1.95;0.73;;;16.80;56.20;;;13.73;69.50;97204.09;5014001;28;20077;-63
2021/09/30 07:39:08;;;;;;;2.75;0.70;;;17.00;54.70;;;13.91;68.58;97209.84;5012284;28;20061;-64
2021/09/30 07:41:34;;;;;;;2.33;0.95;;;17.10;53.20;;;14.03;68.21;97204.91;5012080;28;20474;-64
2021/09/30 07:44:03;;;;;;;5.10;1.10;;;17.10;52.60;;;14.17;66.61;97204.09;5011733;28;20072;-64
2021/09/30 07:46:32;;;;;;;3.50;0.85;;;17.40;52.90;;;14.34;65.41;97202.06;5012196;28;20048;-64
2021/09/30 07:48:58;;;;;;;2.97;0.80;;;17.60;51.80;;;14.53;66.68;97203.34;5011957;28;20109;-64
2021/09/30 07:51:24;;;;;;;2.58;0.75;;;17.90;51.40;;;14.63;65.21;97204.66;4995686;28;20088;-64
2021/09/30 07:53:50;;;;;;;3.40;0.80;;;17.90;51.40;;;14.87;66.07;97210.63;5011542;28;20030;-64
2021/09/30 07:56:16;;;;;;;2.30;0.80;;;18.40;50.90;;;15.11;65.27;97220.84;5011863;28;20438;-64
2021/09/30 07:58:42;;;;;;;1.92;0.55;;;18.60;49.20;;;15.32;64.55;97215.53;5012659;28;20581;-64
2021/09/30 08:01:08;;;;;;;2.65;0.70;;;18.90;48.90;;;15.53;63.61;97203.25;4995591;28;20525;-64
2021/09/30 08:03:35;;;;;;;2.38;0.70;;;18.80;47.60;;;15.59;62.69;97203.31;5011771;28;20125;-64
2021/09/30 08:06:01;;;;;;;3.58;0.90;;;18.80;47.60;;;15.73;62.17;97206.88;5011502;28;20060;-64
2021/09/30 08:08:26;;;;;;;2.60;0.70;;;18.70;47.50;;;15.77;62.02;97207.31;5012541;28;20030;-64
2021/09/30 08:10:52;;;;;;;3.33;0.90;;;18.70;47.10;;;15.83;61.23;97211.84;5012709;28;20033;-64
2021/09/30 08:13:18;;;;;;;4.43;0.90;;;19.00;47.70;;;15.96;60.05;97216.41;4995101;28;20037;-64
2021/09/30 08:15:44;;;;;;;1.85;0.65;;;19.30;45.70;;;16.17;59.22;97213.69;5011124;28;20136;-64
2021/09/30 08:18:09;;;;;;;2.45;0.93;;;19.60;44.70;;;16.34;59.22;97207.03;4994266;28;20084;-65
2021/09/30 08:20:41;;;;;;;2.42;0.90;;;19.70;44.50;;;16.41;58.12;97210.53;4993814;28;20152;-64
2021/09/30 08:23:11;;;;;;;4.07;1.35;;;19.30;44.90;;;16.50;56.18;97209.31;5011463;28;20038;-64
2021/09/30 08:25:37;;;;;;;5.13;0.90;;;19.50;43.70;;;16.49;57.76;97212.19;5011508;28;20061;-64
2021/09/30 08:28:03;;;;;;;2.88;0.90;;;19.00;45.40;;;16.36;56.82;97205.00;4994859;28;20550;-64
2021/09/30 08:30:29;;;;;;;3.97;1.08;;;18.60;45.50;;;16.21;57.09;97210.44;5008902;28;20064;-63
2021/09/30 08:32:55;;;;;;;3.50;0.77;;;18.50;45.30;;;16.08;56.94;97212.22;5011309;28;20070;-63
2021/09/30 08:35:20;;;;;;;4.00;0.80;;;18.10;46.80;;;15.98;55.96;97209.09;4994698;28;20630;-63
2021/09/30 08:37:46;;;;;;;4.32;0.95;;;18.40;46.80;;;16.18;56.85;97215.31;4994680;28;20411;-63
2021/09/30 08:40:13;;;;;;;3.47;0.73;;;19.20;45.00;;;16.42;56.44;97209.50;5010331;28;20497;-63
2021/09/30 08:42:38;;;;;;;3.17;0.70;;;19.20;44.60;;;16.46;55.85;97208.09;5010861;28;20599;-63
2021/09/30 08:45:05;;;;;;;3.47;0.90;;;18.80;44.60;;;16.36;55.38;97207.66;5012446;28;20081;-63
2021/09/30 08:47:31;;;;;;;3.92;0.90;;;18.20;46.10;;;16.27;55.94;97214.13;4994651;28;20030;-63
2021/09/30 08:49:57;;;;;;;2.30;0.82;;;18.40;46.70;;;16.16;55.49;97201.44;5009648;28;20042;-63
2021/09/30 08:52:23;;;;;;;2.78;0.70;;;18.10;47.90;;;15.92;55.33;97200.91;5011966;28;20030;-63
2021/09/30 08:54:49;;;;;;;7.32;0.75;;;17.50;48.10;;;15.76;55.92;97203.03;5011033;28;20049;-63
2021/09/30 08:57:15;;;;;;;2.80;0.82;;;17.90;47.80;;;15.88;56.16;97201.47;4994752;28;20033;-63
2021/09/30 08:59:40;;;;;;;3.92;0.90;;;18.60;45.30;;;16.11;54.81;97203.84;5009985;28;20085;-63
2021/09/30 09:02:16;;;;;;;4.68;0.77;;;19.10;44.00;;;16.47;53.71;97206.25;5010188;28;20041;-63
2021/09/30 09:04:52;;;;;;;3.33;0.70;;;19.60;44.10;;;16.77;52.88;97207.63;4994934;28;20034;-63
2021/09/30 09:07:26;;;;;;;4.50;0.60;;;20.10;42.40;;;17.18;52.03;97201.31;4994599;28;20135;-63
2021/09/30 09:09:52;;;;;;;3.45;0.90;;;20.70;40.90;;;17.65;53.11;97200.31;4993859;28;20033;-63
2021/09/30 09:12:18;;;;;;;3.00;0.57;;;21.40;38.90;;;18.17;52.81;97200.44;4977723;28;20410;-63
2021/09/30 09:14:44;;;;;;;1.20;0.60;;;21.90;40.20;;;18.69;52.75;97203.94;4994338;28;20046;-64
2021/09/30 09:17:12;;;;;;;1.13;0.50;;;22.60;38.00;;;19.20;50.40;97201.16;5011660;28;20041;-62
2021/09/30 09:19:45;;;;;;;3.40;0.63;;;23.40;37.40;;;19.74;46.60;97189.06;5009474;28;20090;-63
2021/09/30 09:22:30;;;;;;;1.92;0.65;;;24.10;34.10;;;20.09;44.62;97183.94;5028030;23;20048;-65
2021/09/30 09:25:16;;;;;;;2.90;0.75;;;24.20;33.10;;;20.47;43.37;97186.41;4973283;28;20034;-65
2021/09/30 09:27:54;;;;;;;2.75;0.60;;;24.90;30.70;;;20.41;43.25;97193.47;4993473;28;20577;-65
2021/09/30 09:30:35;;;;;;;2.60;1.50;;;23.70;32.90;;;20.25;43.37;97191.38;4972439;28;20033;-65
2021/09/30 09:33:04;;;;;;;6.35;1.67;;;23.10;34.40;;;19.93;44.18;97190.72;4990891;28;20180;-65
2021/09/30 09:35:30;;;;;;;3.92;1.40;;;22.10;35.40;;;19.53;46.48;97185.75;4991374;28;20112;-66
2021/09/30 09:38:02;;;;;;;2.03;0.80;;;21.40;36.10;;;19.34;43.53;97184.03;4989273;28;20098;-65
2021/09/30 09:40:27;;;;;;;3.78;0.50;;;22.60;34.40;;;19.34;46.35;97186.69;4981038;28;20122;-65
2021/09/30 09:42:53;;;;;;;1.63;0.52;;;22.40;34.60;;;19.13;45.79;97187.06;4986298;28;20120;-66
2021/09/30 09:45:19;;;;;;;2.22;0.50;;;22.60;33.60;;;19.33;46.22;97197.59;4957964;28;20042;-65
2021/09/30 09:47:45;;;;;;;4.13;0.65;;;23.40;31.80;;;19.72;45.24;97188.44;4957682;28;20050;-65
2021/09/30 09:50:22;;;;;;;2.63;0.70;;;25.10;30.20;;;20.19;41.70;97184.25;4956583;28;20484;-65
2021/09/30 09:52:50;;;;;;;3.08;0.70;;;25.00;29.60;;;20.19;43.84;97185.06;4989733;28;20041;-65
2021/09/30 09:55:27;;;;;;;3.25;0.55;;;24.30;30.40;;;20.38;41.04;97177.06;4990978;28;20093;-65
2021/09/30 09:58:07;;;;;;;3.08;0.40;;;25.10;29.10;;;20.72;39.06;97172.94;4989203;28;20038;-66
2021/09/30 10:00:41;;;;;;;4.60;1.70;;;26.00;27.80;;;21.09;42.58;97165.59;4986006;28;20042;-65
2021/09/30 10:03:30;;;;;;;2.28;0.90;;;27.80;26.00;;;21.65;38.64;97159.75;4966104;28;20042;-66
2021/09/30 10:05:58;;;;;;;1.83;0.65;;;28.60;25.00;;;22.32;42.02;97167.38;4941736;28;20404;-66
2021/09/30 10:08:24;;;;;;;2.75;0.55;;;30.30;23.50;;;23.02;42.40;97156.38;4957798;28;20412;-65
2021/09/30 10:10:53;;;;;;;2.28;0.70;;;31.70;22.30;;;23.83;39.87;97144.28;4957245;28;20038;-66
2021/09/30 10:13:19;;;;;;;2.83;0.53;;;33.10;21.00;;;24.62;41.58;97143.09;4938696;28;20042;-65
2021/09/30 10:15:46;;;;;;;3.25;0.63;;;33.60;20.40;;;24.69;39.94;97149.13;4957229;28;20517;-66
2021/09/30 10:18:12;;;;;;;1.52;0.60;;;30.60;22.80;;;24.51;38.85;97144.06;4941158;28;20087;-66
2021/09/30 10:20:40;;;;;;;3.17;0.57;;;29.80;23.80;;;24.38;37.65;97140.69;4940913;28;20042;-66
2021/09/30 10:23:07;;;;;;;2.97;0.60;;;29.10;24.80;;;24.17;37.89;97136.09;4947502;28;20040;-65
2021/09/30 10:25:38;;;;;;;0.98;0.38;;;28.80;24.80;;;23.74;34.68;97137.69;4980912;28;20038;-65
2021/09/30 10:28:06;;;;;;;1.52;0.50;;;26.70;26.30;;;23.20;37.44;97142.75;4992410;28;20096;-65
2021/09/30 10:30:36;;;;;;;2.25;0.40;;;25.50;28.70;;;22.69;36.75;97142.91;4944709;28;20038;-65
2021/09/30 10:33:04;;;;;;;3.72;1.05;;;25.70;29.50;;;22.84;37.09;97143.19;4991866;28;20054;-65
2021/09/30 10:35:37;;;;;;;3.70;0.70;;;28.60;25.10;;;23.64;35.10;97142.09;4976247;28;20063;-66
2021/09/30 10:38:19;;;;;;;2.42;0.60;;;31.60;21.80;;;24.47;33.79;97137.59;5009390;28;20033;-66
2021/09/30 10:41:06;;;;;;;2.78;0.75;;;32.90;19.90;;;24.59;33.58;97138.25;5009048;28;20096;-66
2021/09/30 10:43:46;;;;;;;4.45;0.77;;;31.10;21.90;;;24.61;31.48;97141.47;4998113;28;20129;-66
2021/09/30 10:46:42;;;;;;;2.47;0.43;;;30.50;21.60;;;24.19;32.13;97133.16;4957059;28;20038;-66
2021/09/30 10:49:43;;;;;;;2.35;0.43;;;27.70;24.40;;;24.41;33.27;97129.44;4972302;28;20121;-66
2021/09/30 10:52:23;;;;;;;2.95;0.55;;;31.00;22.90;;;25.37;32.30;97118.00;4972655;28;20076;-66
2021/09/30 10:55:20;;;;;;;3.03;0.65;;;34.10;19.40;;;26.38;30.36;97108.88;4977445;28;20044;-65
2021/09/30 10:57:57;;;;;;;1.23;0.50;;;35.50;17.90;;;27.23;33.99;97117.41;5009509;28;20041;-65
2021/09/30 11:00:22;;;;;;;1.40;0.45;;;37.10;16.70;;;28.02;34.20;97105.94;4957481;28;20031;-65
2021/09/30 11:03:00;;;;;;;5.65;0.60;;;36.90;17.00;;;28.36;27.72;97103.41;4972519;28;20034;-66
2021/09/30 11:05:31;;;;;;;2.17;0.75;;;36.50;16.50;;;29.01;29.25;97093.28;4989860;28;20031;-66
2021/09/30 11:08:25;;;;;;;2.83;0.77;;;37.50;15.50;;;29.82;26.69;97089.00;4989466;28;20049;-66
2021/09/30 11:14:15;;;;;;;2.80;0.45;;;40.10;14.70;;;31.38;24.90;97085.25;5009451;28;20088;-66
2021/09/30 11:16:51;;;;;;;7.25;4.45;;;40.50;13.70;;;31.96;28.94;97075.78;4990987;28;20030;-66
2021/09/30 11:19:38;;;;;;;3.65;2.45;;;41.30;13.70;;;32.56;24.85;97072.91;4976607;28;20041;-66
2021/09/30 11:22:05;;;;;;;2.45;0.80;;;41.40;13.70;;;33.07;28.11;97074.47;4978800;28;20124;-66
2021/09/30 11:24:35;;;;;;;2.10;0.63;;;41.20;13.60;;;33.32;23.86;97082.06;4958391;28;20038;-66
2021/09/30 11:27:10;;;;;;;2.65;0.60;;;41.50;13.20;;;33.80;22.68;97075.88;4956246;28;20042;-66
2021/09/30 11:29:36;;;;;;;0.88;0.40;;;41.00;13.40;;;34.23;25.71;97072.50;4975834;28;20502;-66
2021/09/30 11:32:02;;;;;;;2.28;0.55;;;41.50;13.30;;;34.52;25.23;97066.47;4989001;28;20139;-66
2021/09/30 11:34:41;;;;;;;2.13;0.70;;;42.10;12.90;;;34.89;22.15;97068.63;4988471;28;20053;-66
2021/09/30 11:37:31;;;;;;;2.87;0.60;;;42.30;13.10;;;35.42;21.76;97056.47;4989834;28;20037;-66
2021/09/30 11:39:58;;;;;;;1.42;0.38;;;42.90;13.00;;;35.83;23.85;97053.16;4971912;28;20048;-66
2021/09/30 11:42:49;;;;;;;1.88;0.50;;;42.80;12.70;;;36.35;19.63;97050.13;4976915;28;20038;-66
2021/09/30 11:45:19;;;;;;;1.58;0.60;;;43.10;12.20;;;36.33;21.87;97044.19;4971303;28;20077;-66
2021/09/30 11:47:46;;;;;;;1.25;0.63;;;41.40;13.40;;;35.71;22.87;97050.25;4945713;28;20038;-66
2021/09/30 11:50:19;;;;;;;1.60;0.50;;;39.20;14.10;;;34.49;20.22;97048.78;4990904;28;20040;-66
2021/09/30 11:52:56;;;;;;;0.80;0.35;;;36.60;16.30;;;33.18;22.64;97041.19;4947693;28;20038;-66
2021/09/30 11:55:27;;;;;;;4.53;0.70;;;34.10;18.50;;;32.32;23.68;97042.38;4965910;28;20034;-66
2021/09/30 11:57:58;;;;;;;2.20;0.77;;;34.70;18.40;;;31.71;21.91;97038.16;4979811;28;20513;-66
2021/09/30 12:00:24;;;;;;;0.88;0.28;;;33.20;19.40;;;30.58;24.38;97041.13;4995034;28;20033;-66
2021/09/30 12:02:59;;;;;;;1.67;0.50;;;31.50;20.90;;;29.53;23.46;97046.47;4994902;28;20038;-67
2021/09/30 12:05:28;;;;;;;1.05;0.40;;;30.40;21.70;;;29.09;25.05;97046.59;4979109;28;20038;-66
2021/09/30 12:07:54;;;;;;;1.98;0.50;;;31.30;22.30;;;29.32;25.68;97041.50;4971651;28;20410;-66
2021/09/30 12:10:20;;;;;;;1.00;0.50;;;32.90;21.50;;;29.69;25.51;97033.56;4998593;28;20069;-66
2021/09/30 12:12:46;;;;;;;2.60;0.80;;;33.50;20.40;;;30.36;25.25;97034.38;4978693;28;20432;-66
2021/09/30 12:15:12;;;;;;;1.75;0.60;;;34.90;19.50;;;31.13;25.64;97028.56;4994792;28;20058;-66
2021/09/30 12:17:38;;;;;;;2.00;0.50;;;35.70;18.60;;;31.79;25.35;97018.44;4978776;28;20044;-66
2021/09/30 12:20:06;;;;;;;2.85;0.40;;;36.10;18.20;;;31.95;25.10;97019.75;4977693;28;20466;-65
2021/09/30 12:22:38;;;;;;;2.97;0.40;;;35.10;18.70;;;31.53;23.67;97027.06;4994690;28;20120;-66
2021/09/30 12:25:25;;;;;;;4.40;0.60;;;33.80;19.80;;;30.84;24.16;97022.56;4978498;28;20033;-66
2021/09/30 12:27:53;;;;;;;1.13;0.40;;;32.20;21.40;;;29.96;25.04;97024.03;4978201;28;20407;-67
2021/09/30 12:30:21;;;;;;;2.22;0.50;;;30.60;22.70;;;29.00;25.86;97023.94;4959082;28;20026;-66
2021/09/30 12:32:50;;;;;;;3.20;0.70;;;29.50;24.50;;;27.99;26.53;97017.22;4975141;28;20042;-66
2021/09/30 12:35:30;;;;;;;1.83;0.52;;;28.20;25.90;;;26.99;26.65;97009.09;4959143;28;20118;-66
2021/09/30 12:37:59;;;;;;;2.33;0.43;;;27.20;26.60;;;26.31;27.24;97013.88;4958725;28;20144;-66
2021/09/30 12:40:28;;;;;;;1.17;0.40;;;27.00;26.70;;;26.08;28.33;97005.19;4994667;28;20026;-66
2021/09/30 12:43:05;;;;;;;2.20;0.57;;;27.10;27.80;;;25.54;28.81;97010.06;4985293;28;20041;-66
2021/09/30 12:45:34;;;;;;;1.45;0.50;;;26.40;27.60;;;24.93;28.75;97004.28;4962643;28;20034;-65
2021/09/30 12:48:09;;;;;;;1.25;0.30;;;25.60;28.30;;;24.68;28.67;97002.19;4977566;28;20411;-65
2021/09/30 12:50:56;;;;;;;0.93;0.40;;;25.70;27.30;;;24.57;29.74;96990.53;4978481;28;20033;-65
2021/09/30 12:53:22;;;;;;;2.45;0.73;;;26.00;27.90;;;24.59;29.39;96982.19;4951769;28;20046;-65
2021/09/30 12:55:50;;;;;;;2.42;0.80;;;26.60;26.80;;;25.32;29.02;96976.00;4942845;28;20058;-65
2021/09/30 12:58:35;;;;;;;1.17;0.50;;;27.90;25.80;;;26.30;27.97;96979.88;4961931;28;20037;-65
2021/09/30 13:01:26;;;;;;;1.77;0.70;;;29.20;24.10;;;27.45;26.80;96964.72;4993368;28;20042;-66
2021/09/30 13:04:33;;;;;;;1.70;0.55;;;30.60;22.70;;;28.68;26.25;96956.72;4972593;28;20030;-66